Time;durP1;ratioP1;P1;durP2;ratioP2;P2;SDS_P1;SDS_P2;PMS_P1;PMS_P2;Temp;Humidity;BMP_temperature;BMP_pressure;BME280_temperature;BME280_humidity;BME280_pressure;Samples;Min_cycle;Max_cycle;Signal;HPM_P1;HPM_P2
2022/04/03 00:01:39;;;;;;;14.07;5.60;;;;;;;-2.25;100.00;102234.47;4963188;28;25922;-70
2022/04/03 00:04:05;;;;;;;11.38;5.32;;;;;;;-2.31;100.00;102224.31;4960606;28;20038;-70
2022/04/03 00:06:30;;;;;;;10.02;4.95;;;;;;;-2.42;100.00;102221.50;4950358;28;20045;-70
2022/04/03 00:08:56;;;;;;;9.48;5.50;;;;;;;-2.53;100.00;102229.19;4951936;28;20127;-70
2022/04/03 00:11:22;;;;;;;9.30;4.80;;;;;;;-2.55;100.00;102228.47;4952169;28;20157;-70
2022/04/03 00:13:49;;;;;;;9.20;4.88;;;;;;;-2.59;100.00;102225.16;4967126;28;20049;-70
2022/04/03 00:16:15;;;;;;;10.95;4.78;;;;;;;-2.61;100.00;102226.19;4949019;28;20046;-70
2022/04/03 00:18:41;;;;;;;9.70;4.65;;;;;;;-2.62;100.00;102224.50;4950587;28;22179;-70
2022/04/03 00:21:06;;;;;;;10.45;4.80;;;;;;;-2.66;100.00;102229.97;4948815;28;20049;-70
2022/04/03 00:23:32;;;;;;;10.18;5.30;;;;;;;-2.75;100.00;102219.97;4963424;28;20048;-70
2022/04/03 00:25:57;;;;;;;8.98;4.50;;;;;;;-2.79;100.00;102218.44;4961321;28;20753;-70
2022/04/03 00:28:26;;;;;;;8.85;4.85;;;;;;;-2.74;100.00;102216.41;4945657;28;20202;-69
2022/04/03 00:30:51;;;;;;;9.30;4.45;;;;;;;-2.67;100.00;102230.03;4963639;28;21578;-69
2022/04/03 00:33:17;;;;;;;8.50;5.10;;;;;;;-2.55;100.00;102220.56;4951398;28;20159;-69
2022/04/03 00:35:42;;;;;;;10.20;4.15;;;;;;;-2.46;100.00;102217.31;4967837;28;20046;-69
2022/04/03 00:38:08;;;;;;;9.43;3.90;;;;;;;-2.40;100.00;102214.31;4948493;28;20072;-69
2022/04/03 00:40:34;;;;;;;9.55;4.38;;;;;;;-2.46;100.00;102214.69;4961927;28;20030;-69
2022/04/03 00:42:59;;;;;;;11.88;4.68;;;;;;;-2.42;100.00;102216.22;4947453;28;20037;-69
2022/04/03 00:45:25;;;;;;;12.07;5.03;;;;;;;-2.42;100.00;102208.31;4967835;28;20067;-69
2022/04/03 00:47:53;;;;;;;8.75;4.03;;;;;;;-2.47;100.00;102213.00;4969813;28;20043;-70
2022/04/03 00:50:18;;;;;;;11.52;4.45;;;;;;;-2.56;100.00;102206.53;4948134;28;20054;-70
2022/04/03 00:52:44;;;;;;;7.30;4.05;;;;;;;-2.62;100.00;102209.53;4967046;28;20060;-70
2022/04/03 00:55:10;;;;;;;12.18;4.85;;;;;;;-2.48;100.00;102221.88;4950041;28;20073;-70
2022/04/03 00:57:36;;;;;;;10.07;4.43;;;;;;;-2.31;100.00;102212.91;4980018;28;20036;-70
2022/04/03 01:00:02;;;;;;;10.23;4.50;;;;;;;-2.16;100.00;102210.16;4948769;28;20053;-69
2022/04/03 01:02:27;;;;;;;10.98;4.80;;;;;;;-2.09;100.00;102207.97;4943921;28;20118;-69
2022/04/03 01:04:53;;;;;;;8.93;4.75;;;;;;;-2.04;100.00;102202.38;4958160;28;20291;-70
2022/04/03 01:07:18;;;;;;;9.98;5.00;;;;;;;-2.07;100.00;102205.22;4956318;28;20049;-69
2022/04/03 01:09:44;;;;;;;9.45;5.20;;;;;;;-2.19;100.00;102202.41;4967146;28;20044;-69
2022/04/03 01:12:10;;;;;;;10.73;4.50;;;;;;;-2.32;100.00;102201.47;4949568;28;20056;-69
2022/04/03 01:14:42;;;;;;;13.23;5.20;;;;;;;-2.41;100.00;102199.44;4963737;28;21013;-70
2022/04/03 01:17:09;;;;;;;8.45;4.53;;;;;;;-2.45;100.00;102211.13;4951119;28;20877;-69
2022/04/03 01:19:35;;;;;;;9.82;4.43;;;;;;;-2.45;100.00;102211.13;4962110;28;20193;-69
2022/04/03 01:22:00;;;;;;;9.27;4.93;;;;;;;-2.45;100.00;102206.69;4951238;28;20348;-69
2022/04/03 01:24:26;;;;;;;9.73;5.07;;;;;;;-2.48;100.00;102196.31;4949783;28;20820;-69
2022/04/03 01:26:52;;;;;;;10.38;5.13;;;;;;;-2.41;100.00;102202.91;4965577;28;20760;-69
2022/04/03 01:29:18;;;;;;;12.02;5.40;;;;;;;-2.41;100.00;102202.06;4951222;28;20050;-69
2022/04/03 01:31:46;;;;;;;12.60;5.28;;;;;;;-2.43;100.00;102198.66;4965704;28;20061;-69
2022/04/03 01:34:12;;;;;;;11.60;4.85;;;;;;;-2.51;100.00;102198.31;4952223;28;20058;-69
2022/04/03 01:36:38;;;;;;;7.80;4.68;;;;;;;-2.58;100.00;102197.00;4964497;28;20084;-68
2022/04/03 01:39:03;;;;;;;11.13;5.38;;;;;;;-2.57;100.00;102201.31;4947814;28;20058;-68
2022/04/03 01:41:29;;;;;;;9.27;4.65;;;;;;;-2.61;100.00;102191.91;4965120;28;20064;-68
2022/04/03 01:43:54;;;;;;;10.73;5.07;;;;;;;-2.69;100.00;102195.84;4951037;28;20044;-68
2022/04/03 01:46:20;;;;;;;9.25;5.03;;;;;;;-2.72;100.00;102190.75;4963547;28;20038;-69
2022/04/03 01:48:45;;;;;;;12.52;5.00;;;;;;;-2.67;100.00;102191.34;4967092;28;20273;-69
2022/04/03 01:51:10;;;;;;;7.30;4.82;;;;;;;-2.70;100.00;102191.53;4947261;28;20168;-69
2022/04/03 01:53:36;;;;;;;12.15;5.20;;;;;;;-2.71;100.00;102184.53;4966019;28;20033;-69
2022/04/03 01:56:04;;;;;;;9.98;5.57;;;;;;;-2.74;100.00;102184.75;4948142;28;20041;-69
2022/04/03 01:58:30;;;;;;;11.27;5.35;;;;;;;-2.77;100.00;102192.84;4963941;28;20088;-69
2022/04/03 02:00:56;;;;;;;8.02;5.32;;;;;;;-2.80;100.00;102169.28;4948443;28;20081;-70
2022/04/03 02:03:22;;;;;;;10.93;5.40;;;;;;;-2.72;100.00;102171.47;4980647;28;20087;-69
2022/04/03 02:05:47;;;;;;;12.93;5.35;;;;;;;-2.66;100.00;102174.56;4966475;28;20037;-68
2022/04/03 02:08:13;;;;;;;9.20;5.22;;;;;;;-2.59;100.00;102171.56;4958487;28;20057;-68
2022/04/03 02:10:38;;;;;;;10.90;5.53;;;;;;;-2.54;100.00;102169.47;4969380;28;20127;-68
2022/04/03 02:13:04;;;;;;;9.43;4.90;;;;;;;-2.54;100.00;102164.19;4952410;28;20054;-68
2022/04/03 02:15:30;;;;;;;8.23;4.55;;;;;;;-2.54;100.00;102172.09;4970493;28;20037;-68
2022/04/03 02:17:55;;;;;;;8.80;4.68;;;;;;;-2.49;100.00;102162.97;4954428;28;20207;-69
2022/04/03 02:20:21;;;;;;;8.95;4.68;;;;;;;-2.32;100.00;102153.13;4968086;28;23402;-69
2022/04/03 02:22:46;;;;;;;11.70;4.85;;;;;;;-2.11;100.00;102161.47;4923433;28;20053;-69
2022/04/03 02:25:13;;;;;;;13.20;4.40;;;;;;;-1.87;100.00;102159.91;4966512;28;20054;-69
2022/04/03 02:27:39;;;;;;;12.32;5.32;;;;;;;-1.72;100.00;102164.19;4966965;28;20515;-69
2022/04/03 02:30:11;;;;;;;8.48;4.32;;;;;;;-1.60;100.00;102157.25;4956667;28;20041;-69
2022/04/03 02:32:37;;;;;;;8.68;4.72;;;;;;;-1.38;100.00;102156.66;4963382;28;20099;-69
2022/04/03 02:35:04;;;;;;;11.80;4.53;;;;;;;-1.17;100.00;102169.38;4947960;28;20084;-69
2022/04/03 02:37:30;;;;;;;8.85;4.50;;;;;;;-0.98;100.00;102159.25;4967715;28;20394;-69
2022/04/03 02:39:55;;;;;;;10.40;4.57;;;;;;;-0.92;100.00;102164.09;4951139;28;20050;-68
2022/04/03 02:42:21;;;;;;;5.90;4.00;;;;;;;-0.87;100.00;102156.72;4966869;28;20180;-69
2022/04/03 02:44:46;;;;;;;9.05;4.15;;;;;;;-0.82;100.00;102151.94;4949379;28;20049;-69
2022/04/03 02:47:12;;;;;;;8.88;3.90;;;;;;;-0.75;100.00;102150.53;4966711;28;20274;-68
2022/04/03 02:49:37;;;;;;;7.22;3.95;;;;;;;-0.68;100.00;102155.41;4967536;28;20033;-69
2022/04/03 02:52:03;;;;;;;11.13;4.28;;;;;;;-0.59;100.00;102160.06;4956729;28;20050;-69
2022/04/03 02:54:29;;;;;;;12.82;4.80;;;;;;;-0.50;100.00;102159.41;4966056;28;20095;-69
2022/04/03 02:56:54;;;;;;;8.23;4.10;;;;;;;-0.43;100.00;102171.25;4948747;28;20152;-68
2022/04/03 02:59:22;;;;;;;17.05;5.50;;;;;;;-0.23;100.00;102190.19;4967070;28;23277;-68
2022/04/03 03:01:48;;;;;;;12.65;4.32;;;;;;;-0.11;100.00;102187.47;4949997;28;21049;-68
2022/04/03 03:04:14;;;;;;;7.82;4.18;;;;;;;-0.11;100.00;102191.94;4967233;28;20037;-68
2022/04/03 03:06:40;;;;;;;8.68;4.18;;;;;;;0.04;100.00;102180.25;4958877;28;20208;-67
2022/04/03 03:09:06;;;;;;;6.65;3.75;;;;;;;0.13;100.00;102184.88;4959505;28;20089;-68
2022/04/03 03:11:31;;;;;;;10.02;4.05;;;;;;;0.18;100.00;102190.69;4968291;28;20033;-68
2022/04/03 03:13:56;;;;;;;9.20;4.15;;;;;;;0.12;100.00;102183.19;4953535;28;20057;-68
2022/04/03 03:16:22;;;;;;;10.82;4.15;;;;;;;0.15;100.00;102167.06;4964114;28;20033;-68
2022/04/03 03:18:47;;;;;;;13.35;4.40;;;;;;;0.19;100.00;102167.69;4952803;28;20049;-68
2022/04/03 03:21:13;;;;;;;19.95;7.70;;;;;;;0.26;100.00;102154.84;4964349;28;20108;-68
2022/04/03 03:23:40;;;;;;;26.25;9.45;;;;;;;0.19;100.00;102149.97;4952086;28;21018;-68
2022/04/03 03:26:06;;;;;;;12.45;5.20;;;;;;;0.18;100.00;102143.00;4965497;28;21011;-68
2022/04/03 03:28:31;;;;;;;9.98;4.28;;;;;;;0.17;100.00;102148.38;4964997;28;20034;-68
2022/04/03 03:30:57;;;;;;;7.65;3.47;;;;;;;0.14;100.00;102138.88;4951365;28;20721;-68
2022/04/03 03:33:22;;;;;;;5.78;3.47;;;;;;;0.08;100.00;102136.69;4963515;28;20037;-68
2022/04/03 03:35:48;;;;;;;7.60;3.22;;;;;;;0.05;100.00;102139.56;4947935;28;20148;-68
2022/04/03 03:38:13;;;;;;;5.78;2.88;;;;;;;0.04;100.00;102131.72;4963857;28;20169;-68
2022/04/03 03:40:39;;;;;;;8.32;2.33;;;;;;;0.00;100.00;102125.81;4949783;28;20058;-68
2022/04/03 03:43:05;;;;;;;9.68;3.33;;;;;;;-0.06;100.00;102120.94;4964569;28;20164;-68
2022/04/03 03:45:30;;;;;;;4.38;2.35;;;;;;;-0.02;100.00;102125.06;4947845;28;20099;-69
2022/04/03 03:47:57;;;;;;;6.32;2.47;;;;;;;-0.04;100.00;102116.38;4963170;28;21166;-69
2022/04/03 03:50:23;;;;;;;6.75;2.15;;;;;;;-0.02;100.00;102123.25;4968097;28;20045;-69
2022/04/03 03:52:49;;;;;;;7.85;1.77;;;;;;;-0.05;100.00;102112.03;4948357;28;20049;-69
2022/04/03 03:55:15;;;;;;;5.20;2.13;;;;;;;-0.01;100.00;102126.75;4966860;28;20084;-69
2022/04/03 03:57:44;;;;;;;4.57;2.28;;;;;;;0.00;100.00;102115.22;4948073;28;20152;-69
2022/04/03 04:00:10;;;;;;;3.03;1.85;;;;;;;-0.04;100.00;102113.72;4953358;28;20030;-68
2022/04/03 04:02:36;;;;;;;4.57;1.88;;;;;;;0.00;100.00;102115.22;4960764;28;20053;-69
2022/04/03 04:05:01;;;;;;;6.30;2.45;;;;;;;0.00;100.00;102120.50;4969725;28;20038;-69
2022/04/03 04:07:37;;;;;;;7.55;2.05;;;;;;;-0.07;100.00;102112.16;4951968;28;20048;-69
2022/04/03 04:10:06;;;;;;;4.30;1.88;;;;;;;-0.13;100.00;102114.41;4965305;28;20038;-68
2022/04/03 04:12:31;;;;;;;5.05;1.55;;;;;;;-0.20;100.00;102123.75;4964550;28;20124;-68
2022/04/03 04:14:57;;;;;;;6.13;1.88;;;;;;;-0.28;100.00;102117.22;4954916;28;20049;-68
2022/04/03 04:17:23;;;;;;;7.40;1.98;;;;;;;-0.34;100.00;102117.66;4964344;28;20044;-68
2022/04/03 04:19:49;;;;;;;2.70;1.50;;;;;;;-0.48;100.00;102112.50;4950199;28;20104;-68
2022/04/03 04:22:16;;;;;;;4.80;2.08;;;;;;;-0.60;100.00;102111.56;4953306;28;20030;-68
2022/04/03 04:24:42;;;;;;;5.05;1.92;;;;;;;-0.70;100.00;102118.50;4948418;28;20058;-68
2022/04/03 04:27:07;;;;;;;5.93;2.55;;;;;;;-0.76;100.00;102111.81;4966251;28;20048;-68
2022/04/03 04:29:33;;;;;;;5.75;2.33;;;;;;;-0.76;100.00;102110.97;4957378;28;20504;-69
2022/04/03 04:31:58;;;;;;;6.35;2.97;;;;;;;-0.69;100.00;102116.69;4952692;28;20049;-68
2022/04/03 04:34:24;;;;;;;6.70;3.17;;;;;;;-0.53;100.00;102115.50;4962675;28;20052;-68
2022/04/03 04:36:49;;;;;;;9.07;3.45;;;;;;;-0.40;100.00;102112.78;4951725;28;20079;-68
2022/04/03 04:39:15;;;;;;;7.32;4.05;;;;;;;-0.33;100.00;102114.03;4964770;28;20136;-68
2022/04/03 04:41:40;;;;;;;8.77;3.92;;;;;;;-0.30;100.00;102113.81;4952116;28;20056;-68
2022/04/03 04:44:06;;;;;;;7.55;4.00;;;;;;;-0.33;100.00;102113.19;4971805;28;20044;-68
2022/04/03 04:46:31;;;;;;;9.60;4.72;;;;;;;-0.37;100.00;102115.22;4939335;28;20058;-68
2022/04/03 04:48:57;;;;;;;9.27;4.53;;;;;;;-0.40;100.00;102117.25;4963177;28;20065;-68
2022/04/03 04:51:22;;;;;;;8.88;5.53;;;;;;;-0.42;100.00;102124.44;4962359;28;20106;-68
2022/04/03 04:53:47;;;;;;;9.88;5.13;;;;;;;-0.46;100.00;102122.97;4946016;28;20060;-68
2022/04/03 04:56:13;;;;;;;12.02;6.05;;;;;;;-0.49;100.00;102124.91;4962548;28;20029;-68
2022/04/03 04:58:39;;;;;;;8.13;5.05;;;;;;;-0.50;100.00;102127.66;4949537;28;20115;-68
2022/04/03 05:01:04;;;;;;;7.97;5.28;;;;;;;-0.52;100.00;102129.56;4962710;28;20107;-68
2022/04/03 05:03:29;;;;;;;9.95;5.60;;;;;;;-0.52;100.00;102126.94;4947936;28;20144;-68
2022/04/03 05:05:55;;;;;;;9.38;6.18;;;;;;;-0.53;100.00;102127.84;4960789;28;20125;-68
2022/04/03 05:08:21;;;;;;;12.57;6.47;;;;;;;-0.46;100.00;102115.88;4962683;28;20436;-68
2022/04/03 05:10:46;;;;;;;11.43;6.47;;;;;;;-0.41;100.00;102116.41;4972353;28;20103;-68
2022/04/03 05:13:12;;;;;;;12.95;6.43;;;;;;;-0.35;100.00;102126.56;4963629;28;20037;-67
2022/04/03 05:15:37;;;;;;;12.10;6.60;;;;;;;-0.33;100.00;102116.69;4948991;28;20168;-68
2022/04/03 05:18:03;;;;;;;17.67;7.55;;;;;;;-0.29;100.00;102120.81;4963062;28;20039;-67
2022/04/03 05:20:28;;;;;;;15.10;6.55;;;;;;;-0.32;100.00;102117.53;4948638;28;20054;-67
2022/04/03 05:22:54;;;;;;;13.68;6.72;;;;;;;-0.39;100.00;102125.06;4963023;28;20112;-68
2022/04/03 05:25:20;;;;;;;11.45;6.78;;;;;;;-0.45;100.00;102124.69;4947825;28;20057;-68
2022/04/03 05:27:45;;;;;;;14.43;7.13;;;;;;;-0.50;100.00;102132.94;4962019;28;20042;-67
2022/04/03 05:30:12;;;;;;;16.33;6.47;;;;;;;-0.51;100.00;102131.25;4964905;28;20049;-67
2022/04/03 05:32:37;;;;;;;14.48;6.00;;;;;;;-0.48;100.00;102133.69;4950937;28;20066;-67
2022/04/03 05:35:05;;;;;;;12.27;6.22;;;;;;;-0.42;100.00;102129.75;4968795;28;20037;-68
2022/04/03 05:37:31;;;;;;;11.30;5.97;;;;;;;-0.34;100.00;102138.84;4953352;28;20045;-68
2022/04/03 05:39:57;;;;;;;10.27;5.82;;;;;;;-0.27;100.00;102134.78;4969133;28;22525;-68
2022/04/03 05:42:23;;;;;;;10.18;6.25;;;;;;;-0.10;100.00;102141.53;4955079;28;20210;-68
2022/04/03 05:44:48;;;;;;;7.57;4.60;;;;;;;0.01;100.00;102138.09;4965961;28;20038;-68
2022/04/03 05:47:16;;;;;;;9.57;4.78;;;;;;;0.08;100.00;102143.78;4959839;28;20054;-68
2022/04/03 05:49:41;;;;;;;9.45;4.78;;;;;;;0.22;100.00;102141.81;4956978;28;20034;-68
2022/04/03 05:52:07;;;;;;;13.57;5.13;;;;;;;0.38;100.00;102143.31;4966182;28;20057;-68
2022/04/03 05:54:32;;;;;;;18.65;7.57;;;;;;;0.61;100.00;102157.50;4953617;28;20046;-68
2022/04/03 05:56:58;;;;;;;29.75;9.77;;;;;;;0.76;100.00;102144.88;4966844;28;20088;-68
2022/04/03 05:59:23;;;;;;;14.02;6.68;;;;;;;0.85;100.00;102138.88;4953154;28;20194;-68
2022/04/03 06:01:49;;;;;;;15.65;5.22;;;;;;;0.93;100.00;102131.16;4970116;28;20037;-68
2022/04/03 06:04:15;;;;;;;11.05;4.28;;;;;;;1.12;100.00;102126.13;4952430;28;20092;-68
2022/04/03 06:06:41;;;;;;;7.65;4.00;;;;;;;1.19;100.00;102135.31;4970518;28;20037;-68
2022/04/03 06:09:06;;;;;;;8.38;4.13;;;;;;;1.23;100.00;102132.38;4952513;28;20037;-69
2022/04/03 06:11:32;;;;;;;10.52;4.35;;;;;;;2.01;100.00;102134.94;4969182;28;20026;-69
2022/04/03 06:13:57;;;;;;;8.40;3.90;;;;;;;3.10;100.00;102139.13;4964547;28;20042;-69
2022/04/03 06:16:23;;;;;;;6.80;3.85;;;;;;;3.74;100.00;102137.97;4956155;28;20089;-69
2022/04/03 06:18:48;;;;;;;7.18;2.85;;;;;;;4.18;100.00;102141.13;4976934;28;20513;-69
2022/04/03 06:21:13;;;;;;;7.18;2.88;;;;;;;3.67;100.00;102137.66;4960785;28;20061;-68
2022/04/03 06:23:39;;;;;;;8.63;3.00;;;;;;;3.15;100.00;102136.88;4971059;28;20136;-68
2022/04/03 06:26:05;;;;;;;7.03;3.08;;;;;;;2.64;100.00;102143.03;4955327;28;20078;-68
2022/04/03 06:28:30;;;;;;;5.85;2.95;;;;;;;2.29;100.00;102145.97;4967543;28;20060;-69
2022/04/03 06:30:56;;;;;;;7.57;3.13;;;;;;;2.27;100.00;102139.94;4967166;28;21236;-70
2022/04/03 06:33:22;;;;;;;8.32;2.67;;;;;;;3.10;100.00;102147.09;4940044;28;20049;-69
2022/04/03 06:35:48;;;;;;;7.80;2.72;;;;;;;3.24;100.00;102151.25;4967714;28;20040;-69
2022/04/03 06:38:14;;;;;;;6.50;2.38;;;;;;;3.29;100.00;102144.53;4950332;28;20054;-68
2022/04/03 06:40:49;;;;;;;5.95;2.70;;;;;;;3.13;100.00;102149.50;4968608;28;23405;-68
2022/04/03 06:43:25;;;;;;;8.75;2.50;;;;;;;2.73;100.00;102144.06;4952636;28;20107;-69
2022/04/03 06:45:51;;;;;;;6.70;2.90;;;;;;;2.74;100.00;102151.06;4964837;28;20083;-69
2022/04/03 06:48:17;;;;;;;8.75;2.85;;;;;;;2.63;100.00;102150.19;4954993;28;20080;-70
2022/04/03 06:50:43;;;;;;;9.18;3.10;;;;;;;2.55;100.00;102147.31;4963637;28;20033;-70
2022/04/03 06:53:08;;;;;;;4.45;2.28;;;;;;;3.33;100.00;102143.31;4965409;28;20069;-70
2022/04/03 06:55:34;;;;;;;6.38;2.83;;;;;;;5.12;100.00;102157.31;4958567;28;20053;-70
2022/04/03 06:57:59;;;;;;;9.93;2.70;;;;;;;6.77;100.00;102134.91;4967573;28;20084;-71
2022/04/03 07:00:26;;;;;;;3.83;2.10;;;;;;;8.14;100.00;102138.38;4949573;28;20053;-71
2022/04/03 07:02:51;;;;;;;6.70;2.38;;;;;;;8.65;85.75;102146.34;4963280;28;20099;-72
2022/04/03 07:05:17;;;;;;;5.72;1.92;;;;;;;8.44;85.58;102141.47;4949083;28;20049;-72
2022/04/03 07:07:43;;;;;;;17.92;2.67;;;;;;;8.84;86.37;102154.03;4961944;28;20706;-71
2022/04/03 07:10:09;;;;;;;6.72;2.38;;;;;;;9.28;75.08;102151.78;4953461;28;20062;-72
2022/04/03 07:12:35;;;;;;;4.50;1.52;;;;;;;9.99;68.90;102149.13;4966623;28;22484;-71
2022/04/03 07:15:03;;;;;;;4.32;1.55;;;;;;;9.78;67.03;102147.91;4969173;28;20041;-72
2022/04/03 07:17:28;;;;;;;7.20;2.10;;;;;;;10.34;64.06;102146.94;4952732;28;20176;-72
2022/04/03 07:19:54;;;;;;;4.50;2.05;;;;;;;11.16;60.67;102145.19;4947684;28;20042;-73
2022/04/03 07:22:20;;;;;;;8.30;1.90;;;;;;;11.56;58.98;102153.00;4952914;28;20084;-73
2022/04/03 07:24:45;;;;;;;6.47;2.08;;;;;;;11.91;55.60;102146.00;4965905;28;20054;-72
2022/04/03 07:27:11;;;;;;;10.18;2.67;;;;;;;12.01;54.24;102141.13;4948891;28;20144;-72
2022/04/03 07:29:36;;;;;;;7.25;2.65;;;;;;;12.04;54.20;102150.69;4966690;28;20037;-72
2022/04/03 07:32:03;;;;;;;11.20;3.10;;;;;;;11.69;55.75;102150.50;4951235;28;20091;-73
2022/04/03 07:34:28;;;;;;;7.18;2.30;;;;;;;12.09;54.95;102145.56;4970523;28;20045;-73
2022/04/03 07:36:54;;;;;;;9.35;3.72;;;;;;;11.82;55.75;102150.63;4948360;28;20021;-72
2022/04/03 07:39:20;;;;;;;12.93;2.88;;;;;;;11.60;56.22;102152.44;4948915;28;20060;-72
2022/04/03 07:41:46;;;;;;;12.65;4.25;;;;;;;11.12;56.90;102151.97;4965596;28;24316;-71
2022/04/03 07:44:12;;;;;;;16.15;4.18;;;;;;;10.67;59.69;102153.75;4947943;28;20060;-72
2022/04/03 07:46:38;;;;;;;10.25;3.10;;;;;;;10.86;59.98;102151.56;4936809;28;20033;-74
2022/04/03 07:49:04;;;;;;;4.65;2.03;;;;;;;10.34;61.21;102155.00;4948744;28;20140;-73
2022/04/03 07:51:30;;;;;;;7.50;1.58;;;;;;;10.37;64.50;102162.75;4970143;28;20140;-72
2022/04/03 07:53:56;;;;;;;6.25;2.38;;;;;;;10.86;63.63;102156.94;4959551;28;20382;-72
2022/04/03 07:56:21;;;;;;;9.25;2.58;;;;;;;10.98;60.82;102166.25;4957586;28;20057;-71
2022/04/03 07:58:47;;;;;;;6.57;1.75;;;;;;;11.10;60.59;102164.81;4966080;28;20045;-72
2022/04/03 08:01:12;;;;;;;7.82;1.60;;;;;;;10.91;60.60;102168.84;4949985;28;20345;-72
2022/04/03 08:03:38;;;;;;;3.15;0.82;;;;;;;10.89;62.23;102168.22;4950263;28;20033;-72
2022/04/03 08:06:04;;;;;;;3.25;0.90;;;;;;;10.65;60.78;102160.34;4950023;28;20056;-72
2022/04/03 08:08:30;;;;;;;4.47;1.08;;;;;;;10.52;61.74;102163.63;4954395;28;20034;-72
2022/04/03 08:10:56;;;;;;;3.85;1.27;;;;;;;11.13;60.02;102159.06;4950830;28;20096;-72
2022/04/03 08:13:22;;;;;;;2.67;0.80;;;;;;;10.77;57.70;102166.13;4949351;28;20036;-71
2022/04/03 08:15:48;;;;;;;5.22;1.10;;;;;;;10.33;58.37;102161.44;4966879;28;20504;-72
2022/04/03 08:18:13;;;;;;;6.80;2.08;;;;;;;10.52;58.62;102160.94;4936686;28;20140;-72
2022/04/03 08:20:39;;;;;;;6.30;1.10;;;;;;;10.45;59.42;102160.81;4966164;28;22452;-72
2022/04/03 08:23:05;;;;;;;6.18;0.88;;;;;;;10.60;59.44;102163.59;4932353;28;20062;-71
2022/04/03 08:25:31;;;;;;;7.40;2.38;;;;;;;11.23;57.79;102165.00;4971061;28;20096;-72
2022/04/03 08:27:57;;;;;;;4.45;1.58;;;;;;;11.63;54.52;102157.47;4951591;28;20052;-73
2022/04/03 08:30:26;;;;;;;4.60;1.17;;;;;;;10.85;54.44;102160.69;4967118;28;20050;-73
2022/04/03 08:32:53;;;;;;;3.47;0.80;;;;;;;10.70;56.00;102168.69;4951609;28;20046;-72
2022/04/03 08:35:19;;;;;;;5.82;0.88;;;;;;;11.12;53.81;102157.34;4954902;28;20029;-72
2022/04/03 08:37:45;;;;;;;12.52;4.70;;;;;;;11.64;54.02;102161.81;4968020;28;20045;-72
2022/04/03 08:40:12;;;;;;;9.18;2.85;;;;;;;11.57;52.20;102160.91;4950824;28;20057;-73
2022/04/03 08:42:39;;;;;;;3.85;0.88;;;;;;;11.18;53.32;102159.31;4964719;28;20027;-72
2022/04/03 08:45:11;;;;;;;5.75;0.90;;;;;;;10.38;53.86;102161.72;4952685;28;20053;-72
2022/04/03 08:47:50;;;;;;;4.53;0.80;;;;;;;9.67;57.36;102156.38;4968829;28;20030;-72
2022/04/03 08:50:17;;;;;;;4.05;0.90;;;;;;;9.33;58.17;102160.16;4920656;28;20054;-72
2022/04/03 08:52:50;;;;;;;4.93;0.90;;;;;;;9.28;61.39;102156.34;4962090;28;20029;-72
2022/04/03 08:55:17;;;;;;;4.10;0.88;;;;;;;9.83;62.77;102155.47;4948153;28;20095;-72
2022/04/03 08:57:42;;;;;;;4.28;1.20;;;;;;;9.93;58.74;102156.09;4965576;28;20040;-72
2022/04/03 09:00:09;;;;;;;8.45;1.30;;;;;;;8.57;64.88;102153.41;4962406;28;20034;-71
2022/04/03 09:02:35;;;;;;;3.03;0.70;;;;;;;8.01;75.89;102162.19;4950092;28;20543;-71
2022/04/03 09:05:03;;;;;;;5.47;1.38;;;;;;;7.39;95.87;102167.78;4963405;28;20037;-70
2022/04/03 09:07:29;;;;;;;6.47;0.88;;;;;;;6.91;100.00;102164.66;4936108;28;20099;-71
2022/04/03 09:10:11;;;;;;;5.93;1.10;;;;;;;6.53;100.00;102154.28;4967216;28;20033;-71
2022/04/03 09:12:43;;;;;;;9.88;1.27;;;;;;;6.71;100.00;102157.81;4952077;28;20533;-71
2022/04/03 09:15:14;;;;;;;7.03;1.52;;;;;;;7.97;100.00;102160.81;4967262;28;20041;-71
2022/04/03 09:17:42;;;;;;;14.27;4.78;;;;;;;9.28;77.29;102157.16;4942593;28;20959;-73
2022/04/03 09:20:22;;;;;;;5.25;1.58;;;;;;;10.20;64.41;102148.50;4968496;28;20122;-72
2022/04/03 09:23:01;;;;;;;6.45;1.63;;;;;;;10.98;59.74;102144.69;4953638;28;20049;-72
2022/04/03 09:25:41;;;;;;;5.38;1.83;;;;;;;11.89;56.89;102143.47;4971679;28;20409;-70
2022/04/03 09:28:09;;;;;;;7.30;1.50;;;;;;;12.02;50.58;102142.81;4943499;28;20081;-72
2022/04/03 09:30:37;;;;;;;9.13;2.05;;;;;;;12.06;51.18;102146.78;4966556;28;20064;-73
2022/04/03 09:33:05;;;;;;;3.58;1.20;;;;;;;12.15;49.08;102137.56;4968201;28;23321;-73
2022/04/03 09:35:32;;;;;;;5.78;1.30;;;;;;;11.81;48.04;102140.03;4954444;28;20055;-71
2022/04/03 09:38:06;;;;;;;6.93;2.10;;;;;;;10.77;51.52;102152.66;4953879;28;20034;-71
2022/04/03 09:40:31;;;;;;;;;;;;;;;9.65;53.34;102153.03;4942273;28;20057;-71
2022/04/03 09:43:17;;;;;;;4.60;0.70;;;;;;;8.80;54.29;102150.88;4971076;28;19963;-71
2022/04/03 09:45:47;;;;;;;2.88;0.57;;;;;;;8.00;59.15;102155.13;4953410;28;20049;-71
2022/04/03 09:48:26;;;;;;;4.10;0.60;;;;;;;7.56;63.11;102152.63;4966694;28;20167;-71
2022/04/03 09:50:56;;;;;;;4.35;0.77;;;;;;;7.34;71.56;102154.88;4944705;28;20052;-71
2022/04/03 09:53:22;;;;;;;6.32;1.85;;;;;;;7.96;74.78;102141.19;4963884;28;20048;-71
2022/04/03 09:55:48;;;;;;;10.95;3.03;;;;;;;9.12;64.82;102151.81;4947387;28;20066;-71
2022/04/03 09:58:13;;;;;;;11.52;3.88;;;;;;;9.52;62.98;102136.59;4965869;28;21112;-72
2022/04/03 10:00:41;;;;;;;8.85;3.63;;;;;;;10.45;57.36;102133.03;4960855;28;20083;-71
2022/04/03 10:03:12;;;;;;;4.45;1.15;;;;;;;11.04;53.82;102135.03;4949856;28;20073;-72
2022/04/03 10:05:37;;;;;;;3.05;0.55;;;;;;;10.91;51.34;102132.97;4972857;28;20085;-71
2022/04/03 10:08:05;;;;;;;1.77;0.60;;;;;;;11.31;50.08;102133.56;4962701;28;20264;-72
2022/04/03 10:10:33;;;;;;;1.95;0.45;;;;;;;11.31;45.04;102133.56;4987209;28;20118;-72
2022/04/03 10:12:59;;;;;;;5.25;0.70;;;;;;;10.55;48.20;102122.84;4965255;28;20053;-72
2022/04/03 10:15:25;;;;;;;2.90;0.60;;;;;;;10.07;50.03;102124.03;4976004;28;20076;-72
2022/04/03 10:17:51;;;;;;;6.03;0.88;;;;;;;9.75;51.54;102129.41;4963964;28;20032;-71
2022/04/03 10:20:17;;;;;;;4.95;1.63;;;;;;;10.63;50.36;102119.25;4957166;28;20057;-72
2022/04/03 10:22:48;;;;;;;7.47;2.25;;;;;;;11.15;49.12;102119.22;4976361;28;20094;-72
2022/04/03 10:25:18;;;;;;;3.95;0.70;;;;;;;11.36;45.56;102120.34;4948087;28;20056;-71
2022/04/03 10:27:44;;;;;;;3.58;0.57;;;;;;;11.48;45.42;102108.06;4966630;28;20083;-71
2022/04/03 10:30:10;;;;;;;3.08;0.75;;;;;;;12.08;45.05;102106.09;4953179;28;20050;-72
2022/04/03 10:32:37;;;;;;;2.50;0.63;;;;;;;12.49;43.47;102103.56;4971429;28;20036;-72
2022/04/03 10:35:08;;;;;;;4.38;1.42;;;;;;;12.36;43.05;102108.88;4939105;28;20069;-73
2022/04/03 10:37:39;;;;;;;2.70;0.50;;;;;;;12.03;42.71;102106.66;4964324;28;20034;-73
2022/04/03 10:40:17;;;;;;;2.95;0.65;;;;;;;12.05;43.84;102110.00;4953350;28;20156;-73
2022/04/03 10:42:55;;;;;;;5.95;0.80;;;;;;;12.65;41.92;102111.41;4966742;28;21207;-72
2022/04/03 10:45:33;;;;;;;4.03;0.60;;;;;;;11.79;44.21;102112.38;4965034;28;21051;-74
2022/04/03 10:48:23;;;;;;;3.88;1.42;;;;;;;10.60;47.17;102107.00;4963107;28;20159;-72
2022/04/03 10:51:11;;;;;;;9.95;3.47;;;;;;;9.71;49.81;102114.63;4960615;28;20369;-72
2022/04/03 10:53:38;;;;;;;14.23;5.35;;;;;;;9.17;53.41;102122.59;4965267;28;20651;-72
2022/04/03 10:56:24;;;;;;;10.43;3.30;;;;;;;10.12;51.75;102106.31;4961024;28;20037;-72
2022/04/03 10:58:52;;;;;;;3.60;1.88;;;;;;;11.37;49.06;102105.81;4961734;28;20137;-73
2022/04/03 11:01:36;;;;;;;3.53;0.85;;;;;;;12.10;43.69;102104.84;4962410;28;20038;-72
2022/04/03 11:04:08;;;;;;;5.25;0.88;;;;;;;12.47;43.78;102100.22;4948742;28;20054;-72
2022/04/03 11:06:35;;;;;;;6.88;2.60;;;;;;;12.91;43.26;102096.41;4959383;28;20048;-73
2022/04/03 11:09:12;;;;;;;9.55;2.80;;;;;;;14.04;42.96;102100.50;4930978;28;20072;-73
2022/04/03 11:11:45;;;;;;;5.03;1.02;;;;;;;13.96;47.07;102106.09;4970827;28;20171;-73
2022/04/03 11:14:12;;;;;;;2.53;0.70;;;;;;;12.21;51.75;102091.88;4955447;28;20041;-72
2022/04/03 11:16:55;;;;;;;5.28;0.70;;;;;;;10.66;57.40;102100.03;4953616;28;20030;-73
2022/04/03 11:19:41;;;;;;;4.03;0.90;;;;;;;9.59;63.82;102117.91;4949237;28;20691;-73